<?xml version="1.0" encoding="UTF-8"?><gpx version="1.0"><name>FlightAirMap GPX Feed</name><trk><name>HER19 American Airlines Heritage | N157AW B737-823 (B737) | KSAN - KSJC</name><number>1</number><trkseg><trkpt lat="32.7333" lon="-117.199"><ele>36.12</ele><time>2025-12-25T11:22:45+00:00</time></trkpt><trkpt lat="32.7333" lon="-117.199"><ele>36.12</ele><time>2025-12-25T11:22:45+00:00</time></trkpt><trkpt lat="32.7334" lon="-117.2"><ele>34.19</ele><time>2025-12-25T11:35:02+00:00</time></trkpt><trkpt lat="32.7317" lon="-117.186"><ele>41.09</ele><time>2025-12-25T11:39:52+00:00</time></trkpt><trkpt lat="32.7762" lon="-117.275"><ele>3801.16</ele><time>2025-12-25T11:44:50+00:00</time></trkpt><trkpt lat="33.0667" lon="-117.477"><ele>8342.86</ele><time>2025-12-25T11:49:50+00:00</time></trkpt><trkpt lat="33.3904" lon="-117.808"><ele>15548.9</ele><time>2025-12-25T11:54:55+00:00</time></trkpt><trkpt lat="33.7076" lon="-118.349"><ele>24827</ele><time>2025-12-25T12:00:02+00:00</time></trkpt><trkpt lat="34.1083" lon="-118.974"><ele>34773.2</ele><time>2025-12-25T12:04:55+00:00</time></trkpt><trkpt lat="34.5863" lon="-119.541"><ele>37992.9</ele><time>2025-12-25T12:09:56+00:00</time></trkpt><trkpt lat="35.0636" lon="-120.122"><ele>38000.8</ele><time>2025-12-25T12:15:03+00:00</time></trkpt><trkpt lat="35.6144" lon="-120.654"><ele>38009.1</ele><time>2025-12-25T12:19:46+00:00</time></trkpt><trkpt lat="36.2167" lon="-121.159"><ele>37989.7</ele><time>2025-12-25T12:24:44+00:00</time></trkpt><trkpt lat="36.824" lon="-121.652"><ele>31463.7</ele><time>2025-12-25T12:29:52+00:00</time></trkpt><trkpt lat="37.3611" lon="-122.047"><ele>24612.3</ele><time>2025-12-25T12:34:50+00:00</time></trkpt><trkpt lat="37.7851" lon="-122.515"><ele>15622.1</ele><time>2025-12-25T12:39:45+00:00</time></trkpt><trkpt lat="37.7617" lon="-122.268"><ele>8434.21</ele><time>2025-12-25T12:44:52+00:00</time></trkpt><trkpt lat="37.4921" lon="-122.07"><ele>2021.64</ele><time>2025-12-25T12:49:55+00:00</time></trkpt><trkpt lat="37.3584" lon="-121.923"><ele>74.27</ele><time>2025-12-25T12:54:52+00:00</time></trkpt><trkpt lat="37.3676" lon="-121.93"><ele>75.44</ele><time>2025-12-25T12:59:55+00:00</time></trkpt></trkseg></trk></gpx>